Time;durP1;ratioP1;P1;durP2;ratioP2;P2;SDS_P1;SDS_P2;PMS_P1;PMS_P2;Temp;Humidity;BMP_temperature;BMP_pressure;BME280_temperature;BME280_humidity;BME280_pressure;Samples;Min_cycle;Max_cycle;Signal;HPM_P1;HPM_P2
2022/05/15 00:02:09;;;;;;;7.00;3.62;;;;;;;10.52;83.87;100456.59;1774970;80;20925;-45
2022/05/15 00:04:36;;;;;;;11.73;4.30;;;;;;;10.44;84.28;100462.33;1775038;80;20932;-43
2022/05/15 00:07:05;;;;;;;6.25;3.67;;;;;;;10.37;84.71;100457.69;1778226;80;21503;-44
2022/05/15 00:09:31;;;;;;;11.73;3.98;;;;;;;10.33;84.97;100458.59;1774909;80;20929;-45
2022/05/15 00:11:58;;;;;;;7.22;3.60;;;;;;;10.30;85.16;100461.23;1775183;80;22687;-45
2022/05/15 00:14:26;;;;;;;11.20;3.83;;;;;;;10.27;85.07;100462.17;1775004;80;20956;-46
2022/05/15 00:16:53;;;;;;;12.15;3.35;;;;;;;10.22;85.40;100457.48;1774959;80;21632;-45
2022/05/15 00:19:20;;;;;;;6.62;2.70;;;;;;;10.21;85.65;100463.54;1775062;80;20936;-44
2022/05/15 00:21:46;;;;;;;5.67;2.62;;;;;;;10.20;85.26;100464.00;1775171;80;21542;-44
2022/05/15 00:24:13;;;;;;;8.28;2.87;;;;;;;10.21;85.17;100457.07;1775010;80;21052;-45
2022/05/15 00:26:39;;;;;;;9.43;3.10;;;;;;;10.22;85.44;100460.07;1774856;80;20936;-43
2022/05/15 00:29:06;;;;;;;5.40;2.50;;;;;;;10.17;85.74;100451.12;1774935;80;20850;-45
2022/05/15 00:31:33;;;;;;;5.22;2.62;;;;;;;10.10;86.15;100452.53;1726180;81;21525;-45
2022/05/15 00:34:00;;;;;;;6.75;2.45;;;;;;;10.02;86.78;100451.36;1754662;80;20936;-45
2022/05/15 00:36:27;;;;;;;11.03;2.98;;;;;;;10.01;87.69;100453.11;1754805;81;21067;-44
2022/05/15 00:38:55;;;;;;;4.90;2.72;;;;;;;10.07;87.89;100453.42;1754544;79;20979;-45
2022/05/15 00:41:21;;;;;;;11.03;3.00;;;;;;;10.07;88.26;100454.72;1754723;81;20889;-45
2022/05/15 00:45:51;;;;;;;6.72;2.50;;;;;;;10.06;88.75;100460.77;1816167;79;22448;-45
2022/05/15 00:48:17;;;;;;;8.98;2.95;;;;;;;9.95;88.91;100462.69;1789261;80;20864;-45
2022/05/15 00:50:44;;;;;;;6.03;3.17;;;;;;;9.92;89.23;100455.39;1789330;80;21254;-45
2022/05/15 00:53:11;;;;;;;11.20;2.98;;;;;;;9.95;89.54;100451.89;1789338;80;20951;-43
2022/05/15 00:55:44;;;;;;;11.00;2.95;;;;;;;9.95;89.99;100452.34;1758504;80;20923;-45
2022/05/15 00:58:18;;;;;;;3.62;2.40;;;;;;;9.94;90.30;100450.64;1789255;80;21046;-45
2022/05/15 01:00:44;;;;;;;9.05;4.05;;;;;;;9.91;90.40;100448.94;1758514;80;21493;-45
2022/05/15 01:03:14;;;;;;;7.65;2.95;;;;;;;9.84;90.86;100449.92;1789201;80;21254;-45
2022/05/15 01:05:51;;;;;;;7.15;3.42;;;;;;;9.83;91.37;100449.51;1758712;80;20893;-44
2022/05/15 01:08:18;;;;;;;5.67;3.30;;;;;;;9.83;91.31;100449.05;1789236;80;20975;-44
2022/05/15 01:10:48;;;;;;;9.63;3.58;;;;;;;9.82;91.22;100453.81;1789162;80;20904;-45
2022/05/15 01:13:15;;;;;;;6.72;3.10;;;;;;;9.82;91.35;100455.11;1758372;80;20948;-45
2022/05/15 01:15:42;;;;;;;8.90;3.27;;;;;;;9.82;91.29;100456.40;1789210;80;21186;-45
2022/05/15 01:18:11;;;;;;;10.28;3.52;;;;;;;9.83;91.06;100455.97;1789177;80;20879;-45
2022/05/15 01:20:39;;;;;;;10.88;3.10;;;;;;;9.83;91.01;100455.97;1789193;80;20983;-45
2022/05/15 01:23:06;;;;;;;11.65;3.30;;;;;;;9.85;90.73;100455.51;1789293;80;20974;-45
2022/05/15 01:25:36;;;;;;;7.53;3.35;;;;;;;9.90;90.39;100458.88;1789309;80;20908;-44
2022/05/15 01:28:08;;;;;;;8.45;3.60;;;;;;;9.89;90.33;100462.34;1789106;80;21933;-45
2022/05/15 01:30:39;;;;;;;8.88;3.35;;;;;;;9.81;90.94;100457.73;1789133;80;20932;-45
2022/05/15 01:33:08;;;;;;;9.73;3.30;;;;;;;9.69;91.39;100463.94;1789109;80;21470;-43
2022/05/15 01:35:36;;;;;;;6.62;3.65;;;;;;;9.57;92.24;100467.55;1758404;80;21059;-45
2022/05/15 01:38:03;;;;;;;7.30;3.00;;;;;;;9.51;93.23;100467.64;1789174;80;21026;-45
2022/05/15 01:40:31;;;;;;;6.40;3.77;;;;;;;9.45;93.77;100464.24;1789167;80;21322;-45
2022/05/15 01:42:59;;;;;;;7.78;4.10;;;;;;;9.45;94.25;100472.45;1789085;79;21011;-43
2022/05/15 01:45:26;;;;;;;13.35;3.98;;;;;;;9.39;94.54;100472.08;1779552;80;21435;-44
2022/05/15 01:47:53;;;;;;;8.10;3.20;;;;;;;9.38;95.37;100472.13;1775628;80;20956;-44
2022/05/15 01:50:21;;;;;;;7.75;3.47;;;;;;;9.33;95.86;100474.30;1775649;80;20995;-45
2022/05/15 01:52:50;;;;;;;6.15;3.52;;;;;;;9.28;96.43;100467.51;1775680;80;20869;-45
2022/05/15 01:55:17;;;;;;;13.32;3.33;;;;;;;9.25;96.92;100466.26;1775549;80;21578;-45
2022/05/15 01:57:43;;;;;;;13.22;3.60;;;;;;;9.24;97.29;100469.27;1774943;80;21003;-45
2022/05/15 02:00:16;;;;;;;6.58;3.60;;;;;;;9.23;97.52;100468.01;1775161;80;20991;-45
2022/05/15 02:02:45;;;;;;;11.22;3.90;;;;;;;9.19;97.77;100468.47;1775078;80;21557;-45
2022/05/15 02:05:12;;;;;;;7.30;3.10;;;;;;;9.15;98.18;100471.52;1775092;80;21095;-44
2022/05/15 02:07:38;;;;;;;8.45;3.37;;;;;;;9.14;98.54;100470.27;1774963;80;21427;-45
2022/05/15 02:10:07;;;;;;;5.95;3.85;;;;;;;9.12;98.68;100468.98;1775036;80;20991;-45
2022/05/15 02:12:34;;;;;;;4.03;3.58;;;;;;;9.09;99.10;100465.15;1768455;80;21605;-45
2022/05/15 02:15:02;;;;;;;8.65;3.50;;;;;;;9.08;99.72;100466.44;1753223;80;20924;-44
2022/05/15 02:17:30;;;;;;;8.93;3.67;;;;;;;9.04;100.00;100469.52;1775244;80;21151;-45
2022/05/15 02:19:57;;;;;;;8.23;3.00;;;;;;;8.98;100.00;100471.73;1774970;80;20913;-45
2022/05/15 02:22:24;;;;;;;8.33;3.30;;;;;;;8.93;100.00;100470.06;1775422;80;20993;-45
2022/05/15 02:24:51;;;;;;;10.20;3.95;;;;;;;8.90;100.00;100464.52;1775060;80;21507;-45
2022/05/15 02:27:18;;;;;;;8.88;4.08;;;;;;;8.87;100.00;100474.87;1775136;80;20917;-45
2022/05/15 02:29:46;;;;;;;7.60;3.62;;;;;;;8.82;100.00;100476.21;1775073;80;22096;-45
2022/05/15 02:32:14;;;;;;;9.48;3.62;;;;;;;8.79;100.00;100483.12;1775008;80;20968;-45
2022/05/15 02:34:40;;;;;;;11.25;4.08;;;;;;;8.76;100.00;100482.28;1775132;80;20877;-44
2022/05/15 02:37:08;;;;;;;7.87;4.37;;;;;;;8.71;100.00;100480.19;1775015;80;20995;-44
2022/05/15 02:39:35;;;;;;;6.35;3.90;;;;;;;8.72;100.00;100484.94;1775156;80;20893;-44
2022/05/15 02:42:03;;;;;;;10.13;3.90;;;;;;;8.82;100.00;100483.08;1775165;80;21131;-44
2022/05/15 02:44:30;;;;;;;16.52;3.70;;;;;;;8.93;100.00;100488.13;1774834;80;20929;-45
2022/05/15 02:46:57;;;;;;;9.33;4.08;;;;;;;9.04;100.00;100492.76;1775146;80;20917;-44
2022/05/15 02:52:09;;;;;;;7.72;3.12;;;;;;;9.29;99.74;100495.05;1775240;80;21455;-45
2022/05/15 02:54:37;;;;;;;8.95;3.08;;;;;;;9.43;98.32;100498.29;1775047;80;22047;-44
2022/05/15 02:57:05;;;;;;;8.95;2.87;;;;;;;9.58;97.03;100501.56;1775032;80;20972;-44
2022/05/15 02:59:32;;;;;;;8.20;3.30;;;;;;;9.67;96.26;100504.01;1774988;80;20928;-45
2022/05/15 03:02:00;;;;;;;13.18;2.90;;;;;;;9.75;95.37;100507.36;1774979;80;20877;-44
2022/05/15 03:04:27;;;;;;;7.08;2.80;;;;;;;9.83;94.35;100508.97;1775021;80;20979;-45
2022/05/15 03:06:54;;;;;;;7.03;2.77;;;;;;;9.89;94.16;100511.04;1775064;80;21244;-45
2022/05/15 03:09:21;;;;;;;7.72;3.00;;;;;;;10.00;91.90;100521.23;1774957;80;20972;-44
2022/05/15 03:11:49;;;;;;;3.77;2.58;;;;;;;10.15;91.44;100517.97;1775039;80;20912;-45
2022/05/15 03:14:15;;;;;;;7.45;3.17;;;;;;;10.25;91.20;100516.09;1774967;80;21463;-45
2022/05/15 03:16:42;;;;;;;9.40;2.83;;;;;;;10.32;91.01;100516.40;1775051;80;20979;-45
2022/05/15 03:19:09;;;;;;;9.48;2.70;;;;;;;10.39;90.36;100517.16;1775037;80;21209;-45
2022/05/15 03:21:37;;;;;;;10.13;3.05;;;;;;;10.47;89.67;100519.20;1775053;80;20889;-44
2022/05/15 03:24:08;;;;;;;7.40;2.50;;;;;;;10.57;88.07;100518.61;1775077;80;21000;-44
2022/05/15 03:26:38;;;;;;;5.17;2.98;;;;;;;10.66;88.41;100526.23;1774950;80;20937;-45
2022/05/15 03:29:06;;;;;;;5.65;2.65;;;;;;;10.71;88.93;100523.12;1753206;80;20979;-45
2022/05/15 03:31:39;;;;;;;4.92;2.80;;;;;;;10.75;89.05;100521.34;1775009;80;21200;-44
2022/05/15 03:34:07;;;;;;;13.00;2.72;;;;;;;10.78;87.93;100525.16;1774843;80;20942;-43
2022/05/15 03:36:34;;;;;;;12.93;2.80;;;;;;;10.85;86.81;100525.45;1774869;80;21538;-45
2022/05/15 03:39:02;;;;;;;4.55;3.00;;;;;;;10.91;86.83;100524.03;1775040;80;20928;-45
2022/05/15 03:41:29;;;;;;;10.50;3.27;;;;;;;10.96;86.46;100519.20;1775190;80;20885;-45
2022/05/15 03:43:56;;;;;;;8.35;3.00;;;;;;;11.03;86.09;100521.66;1774825;80;22202;-44
2022/05/15 03:46:22;;;;;;;6.05;2.70;;;;;;;11.11;85.71;100524.53;1719486;80;20826;-43
2022/05/15 03:48:50;;;;;;;6.62;2.80;;;;;;;11.20;85.32;100523.91;1775148;80;21372;-44
2022/05/15 03:51:17;;;;;;;6.97;2.90;;;;;;;11.36;84.94;100520.56;1774981;80;21037;-44
2022/05/15 03:53:44;;;;;;;7.65;3.25;;;;;;;11.54;82.44;100516.34;1775151;80;21043;-44
2022/05/15 03:56:10;;;;;;;6.72;2.90;;;;;;;11.70;81.60;100517.70;1775079;80;21238;-45
2022/05/15 03:58:38;;;;;;;4.80;2.50;;;;;;;11.86;81.55;100516.06;1775074;80;20920;-44
2022/05/15 04:01:05;;;;;;;4.58;2.65;;;;;;;12.00;81.52;100511.42;1753189;80;20964;-45
2022/05/15 04:03:32;;;;;;;3.37;2.50;;;;;;;12.15;80.85;100518.02;1774951;80;21058;-45
2022/05/15 04:05:59;;;;;;;7.25;2.50;;;;;;;12.26;77.82;100509.98;1775077;80;20912;-46
2022/05/15 04:08:27;;;;;;;16.23;3.20;;;;;;;12.30;78.22;100514.63;1775139;80;21149;-45
2022/05/15 04:10:55;;;;;;;6.62;2.80;;;;;;;12.33;77.85;100518.02;1775068;80;21494;-45
2022/05/15 04:13:23;;;;;;;8.60;2.83;;;;;;;12.40;78.53;100520.45;1774869;80;21059;-45
2022/05/15 04:15:50;;;;;;;9.50;2.85;;;;;;;12.42;77.67;100519.53;1775019;80;20975;-44
2022/05/15 04:18:17;;;;;;;6.45;2.42;;;;;;;12.51;78.72;100527.54;1774942;80;20896;-46
2022/05/15 04:20:44;;;;;;;6.62;2.70;;;;;;;12.59;77.59;100530.78;1774951;80;21311;-45
2022/05/15 04:23:12;;;;;;;5.92;2.55;;;;;;;12.64;77.88;100528.91;1775061;80;20865;-45
2022/05/15 04:25:38;;;;;;;7.87;2.87;;;;;;;12.74;78.17;100528.23;1775088;80;20983;-45
2022/05/15 04:28:06;;;;;;;6.97;2.87;;;;;;;12.84;76.66;100528.84;1774964;80;20888;-45
2022/05/15 04:30:32;;;;;;;4.28;1.98;;;;;;;12.94;76.03;100528.16;1775091;80;20885;-43
2022/05/15 04:32:59;;;;;;;6.83;2.40;;;;;;;13.03;76.10;100525.29;1775068;80;21766;-45
2022/05/15 04:35:26;;;;;;;3.58;2.40;;;;;;;13.11;74.60;100534.18;1775044;80;20892;-45
2022/05/15 04:37:52;;;;;;;8.28;2.92;;;;;;;13.20;75.96;100537.81;1775214;80;20920;-45
2022/05/15 04:40:20;;;;;;;8.50;2.87;;;;;;;13.31;75.07;100535.37;1752806;80;20945;-45
2022/05/15 04:42:46;;;;;;;6.97;2.20;;;;;;;13.40;74.72;100537.70;1775126;80;21557;-44
2022/05/15 04:45:13;;;;;;;9.63;2.42;;;;;;;13.51;73.72;100541.31;1776699;80;21070;-44
2022/05/15 04:47:40;;;;;;;7.90;2.62;;;;;;;13.61;73.85;100541.44;1783537;80;20892;-45
2022/05/15 04:50:08;;;;;;;6.95;2.47;;;;;;;13.71;73.61;100540.72;1783625;80;21482;-44
2022/05/15 04:52:35;;;;;;;6.75;2.52;;;;;;;13.72;71.90;100545.02;1783259;80;20975;-44
2022/05/15 04:55:02;;;;;;;4.53;2.27;;;;;;;13.68;72.03;100547.78;1783558;80;20992;-46
2022/05/15 04:57:28;;;;;;;3.47;2.12;;;;;;;13.75;72.33;100542.78;1755336;80;21406;-44
2022/05/15 04:59:55;;;;;;;10.05;2.40;;;;;;;13.87;73.24;100538.96;1783610;80;20983;-45
2022/05/15 05:02:24;;;;;;;3.00;1.98;;;;;;;13.97;70.90;100537.77;1783407;80;20991;-45
2022/05/15 05:04:50;;;;;;;6.62;2.25;;;;;;;14.06;70.94;100532.28;1783482;80;20897;-44
2022/05/15 05:07:17;;;;;;;3.55;2.20;;;;;;;14.27;70.63;100532.94;1783627;80;20920;-45
2022/05/15 05:09:45;;;;;;;4.35;2.10;;;;;;;14.41;69.40;100528.58;1783695;80;20944;-46
2022/05/15 05:12:12;;;;;;;6.30;1.90;;;;;;;14.39;67.94;100529.08;1783382;80;20924;-44
2022/05/15 05:14:38;;;;;;;4.20;1.75;;;;;;;14.31;68.69;100536.70;1783512;80;20937;-45
2022/05/15 05:17:05;;;;;;;5.42;1.70;;;;;;;14.42;68.83;100534.19;1783549;80;20988;-44
2022/05/15 05:19:32;;;;;;;5.95;1.98;;;;;;;14.55;67.92;100531.58;1783562;80;21493;-45
2022/05/15 05:21:59;;;;;;;4.67;1.62;;;;;;;14.66;68.23;100536.43;1783200;80;21224;-45
2022/05/15 05:24:26;;;;;;;4.33;1.80;;;;;;;14.75;67.42;100534.83;1783389;80;20837;-45
2022/05/15 05:26:53;;;;;;;5.03;1.50;;;;;;;14.77;65.04;100543.88;1783549;80;20932;-45
2022/05/15 05:29:19;;;;;;;3.02;1.42;;;;;;;14.68;64.32;100545.48;1783376;80;21482;-45
2022/05/15 05:31:48;;;;;;;6.55;1.80;;;;;;;14.51;65.16;100541.67;1783632;80;20909;-45
2022/05/15 05:34:14;;;;;;;3.42;2.10;;;;;;;14.58;66.09;100534.52;1783736;80;21932;-44
2022/05/15 05:36:42;;;;;;;7.10;1.75;;;;;;;14.72;66.52;100530.16;1783584;80;20960;-43
2022/05/15 05:39:08;;;;;;;9.30;1.87;;;;;;;14.87;65.91;100527.03;1783641;80;21158;-44
2022/05/15 05:41:35;;;;;;;4.37;1.62;;;;;;;15.08;66.75;100521.50;1783516;80;21031;-44
2022/05/15 05:44:02;;;;;;;7.08;1.47;;;;;;;15.42;66.49;100519.41;1783868;80;20916;-45
2022/05/15 05:46:29;;;;;;;3.00;1.80;;;;;;;15.74;64.64;100518.62;1753761;80;21240;-44
2022/05/15 05:48:57;;;;;;;6.55;1.60;;;;;;;15.85;61.26;100529.94;1775015;80;20873;-45
2022/05/15 05:51:25;;;;;;;6.30;2.00;;;;;;;15.73;60.67;100526.52;1775098;80;21031;-45
2022/05/15 05:53:51;;;;;;;6.05;1.65;;;;;;;15.66;61.39;100527.20;1775145;80;20901;-45
2022/05/15 05:56:18;;;;;;;3.98;1.10;;;;;;;15.57;60.64;100530.18;1774883;80;20963;-46
2022/05/15 05:58:45;;;;;;;4.40;1.45;;;;;;;15.43;60.68;100536.75;1753231;80;21084;-45
2022/05/15 06:01:13;;;;;;;8.18;1.60;;;;;;;15.39;62.05;100529.95;1775033;80;20897;-45
2022/05/15 06:06:26;;;;;;;6.12;1.87;;;;;;;15.37;61.82;100527.86;1775303;80;21446;-43
2022/05/15 06:08:53;;;;;;;3.12;1.72;;;;;;;15.51;64.14;100529.95;1775078;80;20968;-45
2022/05/15 06:11:20;;;;;;;7.22;1.98;;;;;;;15.64;63.73;100526.42;1774986;80;21187;-45
2022/05/15 06:13:47;;;;;;;6.53;2.12;;;;;;;15.59;62.58;100523.14;1775185;80;20929;-44
2022/05/15 06:16:14;;;;;;;2.87;1.62;;;;;;;15.26;63.80;100523.05;1775174;80;20959;-45
2022/05/15 06:18:40;;;;;;;5.33;1.80;;;;;;;15.14;64.00;100525.65;1775130;80;20897;-44
2022/05/15 06:21:07;;;;;;;3.67;1.70;;;;;;;15.12;63.39;100527.46;1775062;80;21474;-45
2022/05/15 06:23:34;;;;;;;2.95;1.47;;;;;;;15.14;62.88;100527.39;1775065;80;21086;-45
2022/05/15 06:26:00;;;;;;;5.65;2.25;;;;;;;15.11;63.02;100532.72;1775236;80;21545;-44
2022/05/15 06:28:29;;;;;;;3.65;1.60;;;;;;;15.06;64.74;100524.62;1775176;80;20936;-45
2022/05/15 06:30:56;;;;;;;5.47;1.82;;;;;;;15.23;64.41;100524.00;1775311;80;20933;-44
2022/05/15 06:33:23;;;;;;;3.72;1.95;;;;;;;15.41;63.20;100524.66;1775112;80;21454;-45
2022/05/15 06:35:49;;;;;;;3.70;1.87;;;;;;;15.45;64.64;100527.11;1774985;80;21086;-45
2022/05/15 06:38:16;;;;;;;4.22;1.85;;;;;;;15.41;64.05;100519.02;1775354;80;20992;-45
2022/05/15 06:40:42;;;;;;;4.90;1.90;;;;;;;15.45;64.42;100519.28;1774837;80;20877;-45
2022/05/15 06:43:09;;;;;;;2.58;1.67;;;;;;;15.60;63.48;100517.02;1775060;80;20940;-44
2022/05/15 06:45:37;;;;;;;2.45;1.47;;;;;;;15.65;61.94;100509.85;1776000;80;21380;-44
2022/05/15 06:48:05;;;;;;;5.75;1.98;;;;;;;15.60;61.20;100511.33;1783233;80;21047;-44
2022/05/15 06:50:32;;;;;;;6.40;1.72;;;;;;;15.64;61.42;100518.59;1783201;80;20928;-45
2022/05/15 06:52:59;;;;;;;5.53;1.80;;;;;;;15.73;62.91;100516.91;1752804;80;21465;-45
2022/05/15 06:55:26;;;;;;;4.10;1.52;;;;;;;15.86;63.06;100521.20;1783199;80;20900;-45
2022/05/15 06:57:52;;;;;;;5.85;1.85;;;;;;;15.94;62.69;100523.11;1783301;80;21382;-45
2022/05/15 07:00:22;;;;;;;8.35;1.82;;;;;;;15.92;63.95;100521.45;1783287;80;21263;-44
2022/05/15 07:02:49;;;;;;;2.85;2.00;;;;;;;15.78;63.43;100530.62;1783249;80;20979;-45
2022/05/15 07:05:24;;;;;;;13.05;3.65;;;;;;;15.60;64.06;100531.36;1783707;80;21470;-45
2022/05/15 07:07:52;;;;;;;7.50;2.30;;;;;;;15.63;66.47;100523.41;1783191;80;20936;-45
2022/05/15 07:10:20;;;;;;;6.42;2.50;;;;;;;15.82;65.82;100524.84;1783198;80;20893;-45
2022/05/15 07:12:46;;;;;;;14.43;2.42;;;;;;;15.89;65.50;100530.71;1783339;80;21223;-45
2022/05/15 07:15:14;;;;;;;8.15;2.60;;;;;;;15.91;66.10;100534.11;1752767;80;21004;-46
2022/05/15 07:17:42;;;;;;;3.62;2.08;;;;;;;16.10;64.94;100534.22;1783322;80;20960;-43
2022/05/15 07:20:10;;;;;;;15.93;2.62;;;;;;;16.10;64.80;100539.44;1783201;80;20959;-43
2022/05/15 07:22:38;;;;;;;5.22;2.47;;;;;;;16.09;63.84;100538.61;1783261;80;21497;-43
2022/05/15 07:25:05;;;;;;;7.60;2.65;;;;;;;16.19;63.71;100536.48;1783063;80;21049;-43
2022/05/15 07:27:31;;;;;;;7.15;2.02;;;;;;;16.21;61.85;100537.26;1783185;80;20924;-43
2022/05/15 07:29:58;;;;;;;7.12;2.15;;;;;;;16.02;62.24;100536.30;1783201;80;20956;-43
2022/05/15 07:32:25;;;;;;;4.60;1.77;;;;;;;15.95;64.07;100535.69;1783323;80;20964;-44
2022/05/15 07:34:51;;;;;;;7.53;2.40;;;;;;;16.09;63.61;100542.52;1783244;80;21455;-44
2022/05/15 07:37:18;;;;;;;4.25;1.80;;;;;;;16.34;63.79;100544.58;1783380;80;21063;-44
2022/05/15 07:39:45;;;;;;;5.05;1.85;;;;;;;16.46;64.13;100540.61;1782958;80;20951;-44
2022/05/15 07:42:12;;;;;;;9.55;2.40;;;;;;;16.54;62.42;100551.58;1783413;80;20992;-44
2022/05/15 07:44:39;;;;;;;7.45;1.80;;;;;;;16.58;61.39;100545.78;1783004;80;20983;-44
2022/05/15 07:47:06;;;;;;;6.47;2.00;;;;;;;16.54;59.95;100543.73;1778118;80;20961;-44
2022/05/15 07:49:33;;;;;;;4.70;2.27;;;;;;;16.64;59.65;100549.43;1748329;80;21262;-44
2022/05/15 07:52:00;;;;;;;3.90;1.40;;;;;;;16.60;60.43;100560.93;1775125;80;21502;-44
2022/05/15 07:54:27;;;;;;;5.75;1.75;;;;;;;16.56;60.48;100556.75;1774890;80;20913;-44
2022/05/15 07:56:54;;;;;;;4.78;1.45;;;;;;;16.60;57.92;100559.19;1775066;80;20996;-44
2022/05/15 07:59:21;;;;;;;10.00;1.70;;;;;;;16.62;57.66;100552.13;1775165;80;20963;-44
2022/05/15 08:01:48;;;;;;;8.75;1.72;;;;;;;16.61;59.38;100555.66;1775069;80;21140;-44
2022/05/15 08:04:15;;;;;;;3.62;1.52;;;;;;;16.94;57.60;100562.95;1774964;80;20992;-44
2022/05/15 08:09:28;;;;;;;7.70;1.80;;;;;;;16.95;55.98;100560.73;1775076;80;20980;-44
2022/05/15 08:11:54;;;;;;;3.20;1.70;;;;;;;17.01;58.39;100559.66;1775260;80;21558;-44
2022/05/15 08:14:21;;;;;;;9.13;2.27;;;;;;;17.33;57.35;100559.15;1775030;80;21045;-44
2022/05/15 08:16:49;;;;;;;7.72;1.55;;;;;;;17.55;57.73;100561.63;1775112;80;20845;-44
2022/05/15 08:24:46;;;;;;;9.97;2.03;;;;;;;17.64;55.29;100557.26;1775344;80;20976;-45
2022/05/15 08:27:13;;;;;;;6.80;2.02;;;;;;;17.65;55.06;100556.34;1774999;80;21279;-44
2022/05/15 08:29:40;;;;;;;6.22;1.65;;;;;;;17.59;55.67;100555.80;1774976;80;20912;-44
2022/05/15 08:32:08;;;;;;;9.48;1.55;;;;;;;17.50;55.39;100547.91;1775159;80;20920;-44
2022/05/15 08:34:35;;;;;;;12.43;2.27;;;;;;;17.28;54.48;100562.41;1774801;80;20964;-44
2022/05/15 08:37:04;;;;;;;7.78;1.70;;;;;;;17.15;55.45;100560.35;1775141;80;20920;-44
2022/05/15 08:39:31;;;;;;;7.35;1.77;;;;;;;16.91;55.35;100556.56;1774924;80;21428;-43
2022/05/15 08:42:22;;;;;;;4.20;1.60;;;;;;;16.94;57.01;100555.11;1774941;80;20948;-44
2022/05/15 08:44:51;;;;;;;7.45;2.55;;;;;;;17.09;55.62;100543.16;1728542;80;20933;-44
2022/05/15 08:47:41;;;;;;;5.12;1.35;;;;;;;17.27;54.83;100541.09;1774776;80;20964;-44
2022/05/15 08:50:17;;;;;;;3.65;1.70;;;;;;;17.35;54.44;100544.23;1774966;80;21007;-44
2022/05/15 08:52:57;;;;;;;4.05;1.50;;;;;;;17.44;53.85;100545.58;1774267;80;22196;-43
2022/05/15 08:55:47;;;;;;;4.85;1.57;;;;;;;17.38;53.01;100551.94;1774913;80;20850;-44
2022/05/15 08:58:21;;;;;;;7.45;2.15;;;;;;;17.38;52.63;100551.45;1775042;80;21032;-44
2022/05/15 09:00:51;;;;;;;5.00;1.70;;;;;;;17.50;54.26;100553.14;1774901;80;20968;-44
2022/05/15 09:03:33;;;;;;;8.98;2.15;;;;;;;17.62;52.67;100549.11;1774791;80;20928;-44
2022/05/15 09:06:26;;;;;;;2.20;1.65;;;;;;;17.66;52.68;100541.02;1775031;80;21299;-44
2022/05/15 09:09:34;;;;;;;5.08;1.50;;;;;;;17.78;53.50;100535.67;1775036;80;20949;-44
2022/05/15 09:12:08;;;;;;;8.65;2.10;;;;;;;18.01;52.32;100540.30;1775129;80;20928;-45
2022/05/15 09:15:04;;;;;;;9.90;2.00;;;;;;;18.08;52.02;100537.80;1774404;80;20956;-44
2022/05/15 09:18:00;;;;;;;9.85;2.10;;;;;;;18.32;51.21;100532.27;1775230;80;21510;-45
2022/05/15 09:20:42;;;;;;;3.15;1.40;;;;;;;18.33;50.04;100533.10;1775234;80;21173;-44
2022/05/15 09:23:41;;;;;;;5.80;1.90;;;;;;;18.26;49.66;100529.10;1751082;80;20921;-44
2022/05/15 09:26:27;;;;;;;4.95;1.50;;;;;;;18.21;50.87;100540.66;1775008;80;20977;-44
2022/05/15 09:29:01;;;;;;;4.47;1.85;;;;;;;18.38;51.47;100534.58;1775451;80;21584;-44
2022/05/15 09:31:41;;;;;;;12.18;2.40;;;;;;;18.48;50.86;100535.41;1775328;80;21002;-44
2022/05/15 09:34:28;;;;;;;8.68;2.40;;;;;;;18.51;51.81;100530.02;1774962;80;21915;-46
2022/05/15 09:39:47;;;;;;;8.15;2.05;;;;;;;18.87;50.20;100524.27;1775119;80;20921;-45
2022/05/15 09:45:20;;;;;;;6.17;2.45;;;;;;;18.75;49.37;100529.69;1775016;80;20964;-44
2022/05/15 09:47:55;;;;;;;5.70;1.92;;;;;;;18.50;50.64;100531.80;1779979;80;21266;-44
2022/05/15 09:50:51;;;;;;;6.80;1.80;;;;;;;18.28;51.51;100529.39;1782519;80;21439;-44
2022/05/15 09:53:36;;;;;;;6.45;2.00;;;;;;;18.18;50.94;100539.95;1779295;80;20920;-45
2022/05/15 09:56:14;;;;;;;7.60;2.12;;;;;;;17.87;51.77;100539.63;1782421;80;20885;-44
2022/05/15 09:59:08;;;;;;;8.53;2.05;;;;;;;17.72;52.48;100534.66;1781333;80;20928;-44
2022/05/15 10:01:58;;;;;;;3.95;1.92;;;;;;;17.95;52.52;100533.58;1783367;80;21841;-45
2022/05/15 10:04:28;;;;;;;8.33;2.47;;;;;;;18.23;51.06;100520.92;1657136;82;21674;-44
2022/05/15 10:07:00;;;;;;;8.05;2.27;;;;;;;18.42;51.18;100531.80;1783270;80;21004;-44
2022/05/15 10:09:38;;;;;;;10.58;2.27;;;;;;;18.80;51.54;100528.53;1782562;80;20995;-46
2022/05/15 10:12:27;;;;;;;9.85;2.33;;;;;;;19.24;48.99;100521.05;1753058;80;20928;-45
2022/05/15 10:14:57;;;;;;;6.67;2.50;;;;;;;19.50;47.91;100524.87;1783500;80;21231;-44
2022/05/15 10:17:25;;;;;;;5.67;2.30;;;;;;;19.59;46.03;100530.08;1782885;80;21462;-45
2022/05/15 10:20:06;;;;;;;9.68;2.05;;;;;;;19.38;47.49;100518.52;1783348;80;20881;-44
2022/05/15 10:22:58;;;;;;;7.78;2.10;;;;;;;19.46;48.25;100518.09;1783298;80;20917;-44
2022/05/15 10:25:54;;;;;;;6.78;1.77;;;;;;;19.39;46.87;100511.50;1783443;80;21515;-44
2022/05/15 10:29:12;;;;;;;5.75;1.80;;;;;;;19.55;46.20;100507.56;1783489;80;21152;-45
2022/05/15 10:31:49;;;;;;;8.10;2.10;;;;;;;19.62;45.74;100501.52;1783419;80;20936;-45
2022/05/15 10:34:21;;;;;;;9.45;1.80;;;;;;;19.48;46.90;100496.55;1783365;80;20936;-44
2022/05/15 10:37:20;;;;;;;5.83;1.90;;;;;;;19.58;45.79;100511.33;1753620;80;20959;-45
2022/05/15 10:40:20;;;;;;;9.15;2.10;;;;;;;19.88;46.33;100507.08;1783513;80;20973;-45
2022/05/15 10:43:29;;;;;;;7.62;1.62;;;;;;;20.31;45.77;100507.72;1783366;79;21955;-45
2022/05/15 10:46:07;;;;;;;11.90;2.08;;;;;;;20.57;42.16;100513.22;1783264;80;20900;-46
2022/05/15 10:49:02;;;;;;;7.85;2.02;;;;;;;20.05;43.84;100509.59;1775943;80;20928;-45
2022/05/15 10:51:50;;;;;;;4.92;1.62;;;;;;;19.65;44.50;100512.67;1774988;80;20909;-45
2022/05/15 10:57:33;;;;;;;8.23;1.72;;;;;;;18.93;42.28;100505.14;1744658;80;21250;-45
2022/05/15 11:00:24;;;;;;;11.75;2.12;;;;;;;18.66;45.21;100512.66;1773988;80;20991;-45
2022/05/15 11:03:09;;;;;;;3.15;1.65;;;;;;;18.60;45.93;100511.22;1771643;80;21488;-45
2022/05/15 11:06:09;;;;;;;3.17;1.35;;;;;;;18.61;46.43;100510.73;1753155;80;20924;-45
2022/05/15 11:08:42;;;;;;;9.43;1.82;;;;;;;18.60;46.14;100515.59;1732132;82;20877;-45
2022/05/15 11:11:27;;;;;;;6.12;1.77;;;;;;;18.48;46.48;100518.37;1733163;82;21182;-45
2022/05/15 11:13:59;;;;;;;4.10;1.55;;;;;;;18.38;46.50;100507.06;1736611;80;20952;-45
2022/05/15 11:16:37;;;;;;;2.62;1.22;;;;;;;18.34;45.93;100514.70;1733463;82;20961;-45
2022/05/15 11:19:27;;;;;;;5.15;1.37;;;;;;;18.22;45.27;100512.67;1733479;82;20837;-44
2022/05/15 11:22:21;;;;;;;4.12;1.20;;;;;;;18.09;45.82;100510.68;1746408;80;21019;-45
2022/05/15 11:24:59;;;;;;;4.22;1.10;;;;;;;18.03;45.81;100511.44;1771599;80;21312;-44
2022/05/15 11:27:51;;;;;;;3.83;1.55;;;;;;;18.09;45.86;100505.44;1772933;80;20893;-45
2022/05/15 11:30:26;;;;;;;8.70;1.30;;;;;;;18.48;45.84;100497.41;1772439;80;20983;-45
2022/05/15 11:32:58;;;;;;;4.37;1.22;;;;;;;18.88;46.58;100494.50;1770283;80;21016;-44
2022/05/15 11:35:29;;;;;;;6.58;1.40;;;;;;;19.30;43.12;100493.61;1762923;80;21020;-44
2022/05/15 11:38:21;;;;;;;5.97;1.27;;;;;;;19.67;43.84;100494.22;1769750;80;21214;-45
2022/05/15 11:40:50;;;;;;;9.70;1.75;;;;;;;19.96;41.90;100489.12;1761947;80;21435;-44
2022/05/15 11:43:33;;;;;;;11.18;1.40;;;;;;;19.97;41.28;100489.50;1768461;80;20967;-46
2022/05/15 11:46:09;;;;;;;7.15;2.70;;;;;;;19.97;41.58;100486.05;1772419;80;21559;-44
2022/05/15 11:48:55;;;;;;;5.25;1.20;;;;;;;19.77;39.60;100482.25;1771367;80;20941;-44
2022/05/15 11:51:29;;;;;;;15.03;2.10;;;;;;;19.64;39.22;100472.91;1766124;81;21226;-44
2022/05/15 11:54:09;;;;;;;4.33;1.60;;;;;;;19.66;39.73;100475.47;1754438;81;20932;-44
2022/05/15 11:56:48;;;;;;;6.83;1.27;;;;;;;19.51;40.80;100466.19;1763080;81;20975;-44
2022/05/15 11:59:27;;;;;;;6.15;2.92;;;;;;;19.61;39.45;100473.57;1762803;79;20976;-45
2022/05/15 12:02:00;;;;;;;26.12;14.95;;;;;;;19.60;40.70;100473.19;1751649;81;20964;-45
2022/05/15 12:04:42;;;;;;;11.88;4.65;;;;;;;19.66;39.95;100467.59;1763656;81;22161;-44
2022/05/15 12:07:18;;;;;;;5.90;2.40;;;;;;;19.62;41.44;100465.59;1759986;79;20974;-45
2022/05/15 12:09:50;;;;;;;4.25;0.90;;;;;;;19.82;41.71;100461.82;1768062;81;21589;-44